createdAt,value
2023-01-18T00:00:40.161Z,26.27
2023-01-18T00:03:11.233Z,24.25
2023-01-18T00:05:41.093Z,36.78
2023-01-18T00:08:12.807Z,38.33
2023-01-18T00:10:40.289Z,25.10
2023-01-18T00:13:07.278Z,26.08
2023-01-18T00:15:35.139Z,24.95
2023-01-18T00:18:02.684Z,28.30
2023-01-18T00:20:30.786Z,23.80
2023-01-18T00:23:00.311Z,30.17
2023-01-18T00:25:27.256Z,27.50
2023-01-18T00:27:55.408Z,30.35
2023-01-18T00:30:25.584Z,31.63
2023-01-18T00:32:58.041Z,25.98
2023-01-18T00:35:26.219Z,34.10
2023-01-18T00:37:54.161Z,31.25
2023-01-18T00:40:22.131Z,22.48
2023-01-18T00:43:07.601Z,29.98
2023-01-18T00:45:34.519Z,26.17
2023-01-18T00:48:02.529Z,30.90
2023-01-18T00:50:29.590Z,26.90
2023-01-18T00:52:58.651Z,19.67
2023-01-18T00:55:26.420Z,21.67
2023-01-18T00:57:53.145Z,26.75
2023-01-18T01:00:20.325Z,28.15
2023-01-18T01:02:47.057Z,21.83
2023-01-18T01:05:44.062Z,24.08
2023-01-18T01:08:16.747Z,29.88
2023-01-18T01:10:48.383Z,23.42
2023-01-18T01:13:36.813Z,31.83
2023-01-18T01:16:30.246Z,23.45
2023-01-18T01:19:16.031Z,24.65
2023-01-18T01:22:01.516Z,26.27
2023-01-18T01:24:47.034Z,27.60
2023-01-18T01:27:14.131Z,26.10
2023-01-18T01:29:41.141Z,27.92
2023-01-18T01:32:07.961Z,21.77
2023-01-18T01:34:34.838Z,24.98
2023-01-18T01:37:01.767Z,28.40
2023-01-18T01:39:28.528Z,22.13
2023-01-18T01:41:55.153Z,21.13
2023-01-18T01:44:23.594Z,22.35
2023-01-18T01:47:25.639Z,19.42
2023-01-18T01:49:56.247Z,23.05
2023-01-18T01:52:28.253Z,30.35
2023-01-18T01:57:33.681Z,31.85
2023-01-18T02:00:07.184Z,26.35
2023-01-18T02:02:41.198Z,27.98
2023-01-18T02:05:12.467Z,22.95
2023-01-18T02:07:39.412Z,26.73
2023-01-18T02:10:06.959Z,31.23
2023-01-18T02:12:36.443Z,33.42
2023-01-18T02:15:04.266Z,25.85
2023-01-18T02:17:39.933Z,33.88
2023-01-18T02:20:37.825Z,30.75
2023-01-18T02:23:30.745Z,28.10
2023-01-18T02:26:21.867Z,34.53
2023-01-18T02:29:19.144Z,35.80
2023-01-18T02:32:13.870Z,29.67
2023-01-18T02:34:48.083Z,26.95
2023-01-18T02:37:28.917Z,27.75
2023-01-18T02:40:05.107Z,33.50
2023-01-18T02:42:52.808Z,27.27
2023-01-18T02:45:59.858Z,23.70
2023-01-18T02:48:41.517Z,28.40
2023-01-18T02:51:08.609Z,22.52
2023-01-18T02:53:43.848Z,32.25
2023-01-18T02:56:18.162Z,33.00
2023-01-18T02:59:02.066Z,35.17
2023-01-18T03:01:38.408Z,35.25
2023-01-18T03:04:14.802Z,39.40
2023-01-18T03:06:48.995Z,37.25
2023-01-18T03:09:21.395Z,28.90
2023-01-18T03:12:11.774Z,34.17
2023-01-18T03:14:45.388Z,31.10
2023-01-18T03:17:25.300Z,43.08
2023-01-18T03:20:09.129Z,36.92
2023-01-18T03:23:00.941Z,38.25
2023-01-18T03:25:41.175Z,30.23
2023-01-18T03:28:49.383Z,36.30
2023-01-18T03:31:41.128Z,35.03
2023-01-18T03:34:18.192Z,29.02
2023-01-18T03:36:47.804Z,35.63
2023-01-18T03:39:19.225Z,40.53
2023-01-18T03:41:50.327Z,26.45
2023-01-18T03:44:29.331Z,46.90
2023-01-18T03:46:57.182Z,30.17
2023-01-18T03:49:24.980Z,37.67
2023-01-18T03:52:16.751Z,37.25
2023-01-18T03:54:49.588Z,32.80
2023-01-18T03:57:31.882Z,28.65
2023-01-18T04:00:01.534Z,31.75
2023-01-18T04:02:28.646Z,33.95
2023-01-18T04:04:57.580Z,29.35
2023-01-18T04:07:28.171Z,23.60
2023-01-18T04:09:54.851Z,28.60
2023-01-18T04:12:21.489Z,24.10
2023-01-18T04:14:48.579Z,32.67
2023-01-18T04:17:15.214Z,29.98
2023-01-18T04:19:41.906Z,35.97
2023-01-18T04:22:09.843Z,31.30
2023-01-18T04:24:36.881Z,34.00
2023-01-18T04:27:06.505Z,25.27
2023-01-18T04:29:33.265Z,35.45
2023-01-18T04:32:00.036Z,44.72
2023-01-18T04:34:26.717Z,23.52
2023-01-18T04:36:53.619Z,29.10
2023-01-18T04:39:20.555Z,32.03
2023-01-18T04:41:47.192Z,35.03
2023-01-18T04:44:14.120Z,28.38
2023-01-18T04:46:40.814Z,26.63
2023-01-18T04:49:12.204Z,28.60
2023-01-18T04:51:39.179Z,36.80
2023-01-18T04:54:05.897Z,25.05
2023-01-18T04:56:32.501Z,33.47
2023-01-18T04:58:59.169Z,30.67
2023-01-18T05:01:25.968Z,31.08
2023-01-18T05:03:53.550Z,28.63
2023-01-18T05:06:20.243Z,27.38
2023-01-18T05:08:47.274Z,26.30
2023-01-18T05:11:20.759Z,28.42
2023-01-18T05:13:47.469Z,30.55
2023-01-18T05:16:24.327Z,33.83
2023-01-18T05:18:51.398Z,36.03
2023-01-18T05:21:18.138Z,40.20
2023-01-18T05:23:45.254Z,36.20
2023-01-18T05:26:20.836Z,35.33
2023-01-18T05:28:48.396Z,33.88
2023-01-18T05:31:18.118Z,42.70
2023-01-18T05:33:45.204Z,43.42
2023-01-18T05:36:11.888Z,39.90
2023-01-18T05:38:38.569Z,35.40
2023-01-18T05:41:05.664Z,34.70
2023-01-18T05:43:33.454Z,34.85
2023-01-18T05:46:00.850Z,29.17
2023-01-18T05:48:27.810Z,42.72
2023-01-18T05:50:54.613Z,53.00
2023-01-18T05:53:22.886Z,31.67
2023-01-18T05:55:57.884Z,33.38
2023-01-18T05:58:25.483Z,34.35
2023-01-18T06:00:52.538Z,36.72
2023-01-18T06:03:19.771Z,41.70
2023-01-18T06:05:48.053Z,41.65
2023-01-18T06:08:15.533Z,42.95
2023-01-18T06:10:42.338Z,45.28
2023-01-18T06:13:09.194Z,45.13
2023-01-18T06:15:36.168Z,43.40
2023-01-18T06:18:02.810Z,37.47
2023-01-18T06:20:30.404Z,56.58
2023-01-18T06:22:58.146Z,43.33
2023-01-18T06:25:25.628Z,57.97
2023-01-18T06:27:52.311Z,51.60
2023-01-18T06:30:19.424Z,48.63
2023-01-18T06:32:47.067Z,47.47
2023-01-18T06:35:13.781Z,39.40
2023-01-18T06:37:40.517Z,46.50
2023-01-18T06:40:07.809Z,58.58
2023-01-18T06:42:34.463Z,45.33
2023-01-18T06:45:01.118Z,46.28
2023-01-18T06:47:27.739Z,44.17
2023-01-18T06:49:55.866Z,45.33
2023-01-18T06:52:22.915Z,48.20
2023-01-18T06:54:49.552Z,94.70
2023-01-18T06:57:16.190Z,96.28
2023-01-18T06:59:42.854Z,91.47
2023-01-18T07:02:14.058Z,63.67
2023-01-18T07:04:44.067Z,46.77
2023-01-18T07:07:11.287Z,43.67
2023-01-18T07:09:38.190Z,46.53
2023-01-18T07:12:05.254Z,52.00
2023-01-18T07:14:31.917Z,38.67
2023-01-18T07:16:58.692Z,49.88
2023-01-18T07:19:25.364Z,43.67
2023-01-18T07:21:53.699Z,46.05
2023-01-18T07:24:20.494Z,45.55
2023-01-18T07:26:47.164Z,44.63
2023-01-18T07:29:13.893Z,51.40
2023-01-18T07:31:40.702Z,49.70
2023-01-18T07:34:08.643Z,41.28
2023-01-18T07:36:35.457Z,47.50
2023-01-18T07:39:03.287Z,49.45
2023-01-18T07:41:31.142Z,45.10
2023-01-18T07:43:58.366Z,43.00
2023-01-18T07:46:26.259Z,42.72
2023-01-18T07:48:53.399Z,52.30
2023-01-18T07:51:22.503Z,41.95
2023-01-18T07:53:53.478Z,30.67
2023-01-18T07:56:20.464Z,28.08
2023-01-18T07:58:47.310Z,30.20
2023-01-18T08:01:16.695Z,37.28
2023-01-18T08:03:45.145Z,47.88
2023-01-18T08:06:16.926Z,32.70
2023-01-18T08:08:44.032Z,22.80
2023-01-18T08:11:11.878Z,26.55
2023-01-18T08:13:38.550Z,20.90
2023-01-18T08:16:08.286Z,25.35
2023-01-18T08:18:35.161Z,29.85
2023-01-18T08:21:01.924Z,26.25
2023-01-18T08:23:28.951Z,25.42
2023-01-18T08:25:55.599Z,22.83
2023-01-18T08:28:22.762Z,23.58
2023-01-18T08:30:49.488Z,26.13
2023-01-18T08:33:16.507Z,51.25
2023-01-18T08:35:46.189Z,35.15
2023-01-18T08:38:14.710Z,35.17
2023-01-18T08:40:41.916Z,23.92
2023-01-18T08:43:10.857Z,27.48
2023-01-18T08:45:37.932Z,36.33
2023-01-18T08:48:07.473Z,35.65
2023-01-18T08:50:35.221Z,32.17
2023-01-18T08:53:02.780Z,34.03
2023-01-18T08:55:29.863Z,31.23
2023-01-18T08:57:59.681Z,42.78
2023-01-18T09:00:30.688Z,32.88
2023-01-18T09:02:58.977Z,45.35
2023-01-18T09:05:27.024Z,30.40
2023-01-18T09:07:54.863Z,39.22
2023-01-18T09:10:22.243Z,44.20
2023-01-18T09:12:49.074Z,38.53
2023-01-18T09:15:15.863Z,35.00
2023-01-18T09:17:42.565Z,36.15
2023-01-18T09:20:11.917Z,31.48
2023-01-18T09:22:39.392Z,27.48
2023-01-18T09:25:06.644Z,29.45
2023-01-18T09:27:33.509Z,28.52
2023-01-18T09:30:00.333Z,31.33
2023-01-18T09:32:27.468Z,32.05
2023-01-18T09:34:54.852Z,31.80
2023-01-18T09:37:22.059Z,32.75
2023-01-18T09:39:52.785Z,30.35
2023-01-18T09:42:27.262Z,30.60
2023-01-18T09:45:01.171Z,29.50
2023-01-18T09:47:34.365Z,32.13
2023-01-18T09:50:13.281Z,27.77
2023-01-18T09:52:57.262Z,33.15
2023-01-18T09:55:47.575Z,28.85
2023-01-18T09:58:47.201Z,35.38
2023-01-18T10:01:19.711Z,27.75
2023-01-18T10:03:50.317Z,29.50
2023-01-18T10:06:23.518Z,28.75
2023-01-18T10:09:01.041Z,28.88
2023-01-18T10:11:31.334Z,30.63
2023-01-18T10:14:13.024Z,25.58
2023-01-18T10:16:39.830Z,32.47
2023-01-18T10:19:25.688Z,35.63
2023-01-18T10:22:06.588Z,34.88
2023-01-18T10:24:45.831Z,26.23
2023-01-18T10:27:40.320Z,27.70
2023-01-18T10:30:44.277Z,25.67
2023-01-18T10:33:23.034Z,28.48
2023-01-18T10:35:54.116Z,25.73
2023-01-18T10:38:24.358Z,27.95
2023-01-18T10:40:57.034Z,24.50
2023-01-18T10:43:26.100Z,24.85
2023-01-18T10:45:53.458Z,43.45
2023-01-18T10:48:35.726Z,29.10
2023-01-18T10:53:37.523Z,29.23
2023-01-18T10:56:10.693Z,32.43
2023-01-18T10:58:57.919Z,27.13
2023-01-18T11:01:36.495Z,35.90
2023-01-18T11:04:22.238Z,29.60
2023-01-18T11:06:53.639Z,30.77
2023-01-18T11:09:41.360Z,29.70
2023-01-18T11:12:33.956Z,36.45
2023-01-18T11:15:15.792Z,31.75
2023-01-18T11:17:55.875Z,31.23
2023-01-18T11:20:29.950Z,31.75
2023-01-18T11:23:16.531Z,37.92
2023-01-18T11:26:00.589Z,37.20
2023-01-18T11:28:57.947Z,32.80
2023-01-18T11:31:28.900Z,40.70
2023-01-18T11:34:02.749Z,32.72
2023-01-18T11:36:41.631Z,28.83
2023-01-18T11:39:28.173Z,36.03
2023-01-18T11:42:21.531Z,33.25
2023-01-18T11:45:05.027Z,31.60
2023-01-18T11:47:53.412Z,32.20
2023-01-18T11:50:29.032Z,29.05
2023-01-18T11:53:11.096Z,34.03
2023-01-18T11:56:07.806Z,38.35
2023-01-18T11:58:36.091Z,29.52
2023-01-18T12:01:37.613Z,37.72
2023-01-18T12:04:11.654Z,33.92
2023-01-18T12:06:48.148Z,29.50
2023-01-18T12:09:39.834Z,25.73
2023-01-18T12:12:33.684Z,31.75
2023-01-18T12:15:26.708Z,28.65
2023-01-18T12:18:17.146Z,29.17
2023-01-18T12:21:03.457Z,28.00
2023-01-18T12:23:56.925Z,26.10
2023-01-18T12:26:32.961Z,27.40
2023-01-18T12:29:24.573Z,27.77
2023-01-18T12:32:25.228Z,25.65
2023-01-18T12:35:24.159Z,23.35
2023-01-18T12:38:25.877Z,24.75
2023-01-18T12:41:24.247Z,23.23
2023-01-18T12:44:16.996Z,22.08
2023-01-18T12:47:00.781Z,23.65
2023-01-18T12:49:32.364Z,20.70
2023-01-18T12:52:17.643Z,25.65
2023-01-18T12:54:55.499Z,19.00
2023-01-18T12:57:23.623Z,16.10
2023-01-18T13:00:06.994Z,22.45
2023-01-18T13:02:39.861Z,24.75
2023-01-18T13:05:18.298Z,25.02
2023-01-18T13:08:01.202Z,18.52
2023-01-18T13:10:29.048Z,17.70
2023-01-18T13:12:57.375Z,20.00
2023-01-18T13:15:35.654Z,20.23
2023-01-18T13:18:10.372Z,23.60
2023-01-18T13:20:44.020Z,24.15
2023-01-18T13:23:32.805Z,20.83
2023-01-18T13:26:20.049Z,16.80
2023-01-18T13:28:46.781Z,17.05
2023-01-18T13:31:13.705Z,19.13
2023-01-18T13:33:45.473Z,20.60
2023-01-18T13:36:15.259Z,15.88
2023-01-18T13:39:14.607Z,20.33
2023-01-18T13:42:03.921Z,22.02
2023-01-18T13:44:43.656Z,20.77
2023-01-18T13:47:35.511Z,18.00
2023-01-18T13:50:02.323Z,15.15
2023-01-18T13:52:33.819Z,19.35
2023-01-18T13:55:03.882Z,22.80
2023-01-18T13:57:32.398Z,17.75
2023-01-18T14:00:00.125Z,13.05
2023-01-18T14:02:45.227Z,14.00
2023-01-18T14:05:25.558Z,13.55
2023-01-18T14:08:01.215Z,15.40
2023-01-18T14:10:38.086Z,17.48
2023-01-18T14:13:08.179Z,16.48
2023-01-18T14:15:49.841Z,17.23
2023-01-18T14:18:28.302Z,16.20
2023-01-18T14:21:29.939Z,17.70
2023-01-18T14:24:30.700Z,12.05
2023-01-18T14:26:59.599Z,12.80
2023-01-18T14:29:43.568Z,20.52
2023-01-18T14:32:18.163Z,20.27
2023-01-18T14:34:44.886Z,13.88
2023-01-18T14:37:31.926Z,22.75
2023-01-18T14:40:16.581Z,11.77
2023-01-18T14:42:55.860Z,20.33
2023-01-18T14:45:27.377Z,13.05
2023-01-18T14:47:57.352Z,14.00
2023-01-18T14:50:27.004Z,14.93
2023-01-18T14:52:54.168Z,17.42
2023-01-18T14:55:32.588Z,19.80
2023-01-18T14:58:12.796Z,13.90
2023-01-18T15:00:48.023Z,21.08
2023-01-18T15:03:23.890Z,18.90
2023-01-18T15:06:07.053Z,14.65
2023-01-18T15:08:36.470Z,24.48
2023-01-18T15:11:05.158Z,18.42
2023-01-18T15:13:32.716Z,20.02
2023-01-18T15:16:02.105Z,16.55
2023-01-18T15:18:29.609Z,18.23
2023-01-18T15:21:02.447Z,16.58
2023-01-18T15:23:30.078Z,21.15
2023-01-18T15:25:57.486Z,21.30
2023-01-18T15:28:33.923Z,18.98
2023-01-18T15:31:06.606Z,17.25
2023-01-18T15:33:35.243Z,18.70
2023-01-18T15:36:02.057Z,16.70
2023-01-18T15:38:28.898Z,16.85
2023-01-18T15:40:58.678Z,14.82
2023-01-18T15:43:33.315Z,16.92
2023-01-18T15:46:00.805Z,16.33
2023-01-18T15:48:33.600Z,21.20
2023-01-18T15:51:07.674Z,24.55
2023-01-18T15:53:52.179Z,17.48
2023-01-18T15:56:25.374Z,22.17
2023-01-18T15:58:55.804Z,25.02
2023-01-18T16:01:29.283Z,20.30
2023-01-18T16:04:09.706Z,19.70
2023-01-18T16:06:37.517Z,23.75
2023-01-18T16:09:12.845Z,23.88
2023-01-18T16:11:52.581Z,28.23
2023-01-18T16:14:27.843Z,20.20
2023-01-18T16:17:17.977Z,27.77
2023-01-18T16:19:51.717Z,21.92
2023-01-18T16:22:21.442Z,22.95
2023-01-18T16:24:50.938Z,19.33
2023-01-18T16:27:20.550Z,19.33
2023-01-18T16:29:56.053Z,16.02
2023-01-18T16:32:35.764Z,21.08
2023-01-18T16:35:09.929Z,24.08
2023-01-18T16:37:38.397Z,18.75
2023-01-18T16:40:08.805Z,18.23
2023-01-18T16:42:55.336Z,20.20
2023-01-18T16:45:22.106Z,19.27
2023-01-18T16:47:49.216Z,21.10
2023-01-18T16:50:17.330Z,22.80
2023-01-18T16:52:44.854Z,15.27
2023-01-18T16:55:13.544Z,22.35
2023-01-18T16:57:40.314Z,21.00
2023-01-18T17:00:19.833Z,19.50
2023-01-18T17:02:46.872Z,25.38
2023-01-18T17:05:14.198Z,22.35
2023-01-18T17:07:40.936Z,25.15
2023-01-18T17:10:34.854Z,27.88
2023-01-18T17:13:02.053Z,21.45
2023-01-18T17:15:34.547Z,19.10
2023-01-18T17:18:02.267Z,16.58
2023-01-18T17:20:30.264Z,19.90
2023-01-18T17:22:57.437Z,25.15
2023-01-18T17:25:25.074Z,26.00
2023-01-18T17:27:52.061Z,23.98
2023-01-18T17:30:21.631Z,20.20
2023-01-18T17:32:48.855Z,18.83
2023-01-18T17:35:18.859Z,18.88
2023-01-18T17:37:45.726Z,18.13
2023-01-18T17:40:22.617Z,21.13
2023-01-18T17:42:52.841Z,17.35
2023-01-18T17:45:19.573Z,21.80
2023-01-18T17:47:46.238Z,23.05
2023-01-18T17:50:17.447Z,19.55
2023-01-18T17:52:44.210Z,16.48
2023-01-18T17:55:13.156Z,18.83
2023-01-18T17:57:40.822Z,15.27
2023-01-18T18:00:11.679Z,16.35
2023-01-18T18:02:39.040Z,20.80
2023-01-18T18:05:06.772Z,25.90
2023-01-18T18:07:34.093Z,18.10
2023-01-18T18:10:01.238Z,19.85
2023-01-18T18:12:30.076Z,16.92
2023-01-18T18:14:56.997Z,18.10
2023-01-18T18:17:26.575Z,19.55
2023-01-18T18:19:53.634Z,20.58
2023-01-18T18:22:20.555Z,22.42
2023-01-18T18:24:49.228Z,20.90
2023-01-18T18:27:17.232Z,12.13
2023-01-18T18:29:44.428Z,15.98
2023-01-18T18:32:11.576Z,18.10
2023-01-18T18:34:38.265Z,15.70
2023-01-18T18:37:05.259Z,21.38
2023-01-18T18:39:33.096Z,21.30
2023-01-18T18:42:00.832Z,16.20
2023-01-18T18:44:27.779Z,18.13
2023-01-18T18:46:54.440Z,19.60
2023-01-18T18:49:21.114Z,17.65
2023-01-18T18:51:47.860Z,19.35
2023-01-18T18:54:14.553Z,16.40
2023-01-18T18:56:41.569Z,14.73
2023-01-18T18:59:08.367Z,15.13
2023-01-18T19:01:35.402Z,22.70
2023-01-18T19:04:02.254Z,15.18
2023-01-18T19:06:28.970Z,16.83
2023-01-18T19:08:55.798Z,19.17
2023-01-18T19:11:22.537Z,16.65
2023-01-18T19:13:49.681Z,19.40
2023-01-18T19:16:16.992Z,15.75
2023-01-18T19:18:43.914Z,19.85
2023-01-18T19:21:13.171Z,18.90
2023-01-18T19:23:39.921Z,16.27
2023-01-18T19:26:06.744Z,16.33
2023-01-18T19:28:33.385Z,15.45
2023-01-18T19:31:05.476Z,15.45
2023-01-18T19:36:12.646Z,14.60
2023-01-18T19:38:45.716Z,18.80
2023-01-18T19:41:13.669Z,16.60
2023-01-18T19:43:40.361Z,16.83
2023-01-18T19:46:08.795Z,14.38
2023-01-18T19:48:37.723Z,18.25
2023-01-18T19:51:20.736Z,15.02
2023-01-18T19:53:48.959Z,17.25
2023-01-18T19:56:15.629Z,19.27
2023-01-18T19:58:42.280Z,16.67
2023-01-18T20:01:10.834Z,13.85
2023-01-18T20:03:37.667Z,16.98
2023-01-18T20:06:14.995Z,15.32
2023-01-18T20:08:42.162Z,16.38
2023-01-18T20:11:14.467Z,15.15
2023-01-18T20:13:47.237Z,17.35
2023-01-18T20:16:13.964Z,13.25
2023-01-18T20:18:40.753Z,14.75
2023-01-18T20:21:14.312Z,14.35
2023-01-18T20:23:42.842Z,12.23
2023-01-18T20:26:14.518Z,17.10
2023-01-18T20:28:42.189Z,14.38
2023-01-18T20:31:10.163Z,16.65
2023-01-18T20:33:38.181Z,11.05
2023-01-18T20:36:09.110Z,15.75
2023-01-18T20:38:35.820Z,13.57
2023-01-18T20:41:02.608Z,15.20
2023-01-18T20:43:29.501Z,15.82
2023-01-18T20:46:02.112Z,16.40
2023-01-18T20:48:29.360Z,17.30
2023-01-18T20:50:59.010Z,13.18
2023-01-18T20:53:27.778Z,14.23
2023-01-18T20:55:55.507Z,14.05
2023-01-18T20:58:22.760Z,13.85
2023-01-18T21:00:50.011Z,14.57
2023-01-18T21:03:19.703Z,15.82
2023-01-18T21:05:47.687Z,16.73
2023-01-18T21:08:14.962Z,12.95
2023-01-18T21:10:42.184Z,13.90
2023-01-18T21:13:10.589Z,13.52
2023-01-18T21:15:38.858Z,13.55
2023-01-18T21:18:06.348Z,15.77
2023-01-18T21:20:33.271Z,10.50
2023-01-18T21:23:03.405Z,13.30
2023-01-18T21:25:30.215Z,14.68
2023-01-18T21:27:58.102Z,12.60
2023-01-18T21:30:25.077Z,16.85
2023-01-18T21:32:51.708Z,14.35
2023-01-18T21:35:18.857Z,16.40
2023-01-18T21:37:45.549Z,12.32
2023-01-18T21:40:12.685Z,10.35
2023-01-18T21:42:57.929Z,14.32
2023-01-18T21:45:43.484Z,15.27
2023-01-18T21:48:10.220Z,11.15
2023-01-18T21:50:58.869Z,13.48
2023-01-18T21:53:44.287Z,11.20
2023-01-18T21:56:10.999Z,15.68
2023-01-18T21:58:52.756Z,13.40
2023-01-18T22:05:03.683Z,16.20
2023-01-18T22:07:33.816Z,12.70
2023-01-18T22:10:06.542Z,11.88
2023-01-18T22:12:35.857Z,10.60
2023-01-18T22:15:04.283Z,14.18
2023-01-18T22:17:31.063Z,16.48
2023-01-18T22:19:57.747Z,10.38
2023-01-18T22:22:24.485Z,10.70
2023-01-18T22:24:51.385Z,11.40
2023-01-18T22:27:18.074Z,9.38
2023-01-18T22:29:44.742Z,12.48
2023-01-18T22:32:11.481Z,12.77
2023-01-18T22:34:38.115Z,10.80
2023-01-18T22:37:05.620Z,11.40
2023-01-18T22:39:32.340Z,17.77
2023-01-18T22:41:59.025Z,14.38
2023-01-18T22:44:25.703Z,17.33
2023-01-18T22:46:52.356Z,12.55
2023-01-18T22:49:19.098Z,17.67
2023-01-18T22:51:45.755Z,9.35
2023-01-18T22:54:12.582Z,11.05
2023-01-18T22:56:39.242Z,9.85
2023-01-18T22:59:07.742Z,12.13
2023-01-18T23:01:34.384Z,10.57
2023-01-18T23:04:03.696Z,8.88
2023-01-18T23:06:46.756Z,12.95
2023-01-18T23:09:15.472Z,10.43
2023-01-18T23:11:42.183Z,11.25
2023-01-18T23:14:27.722Z,16.10
2023-01-18T23:17:13.194Z,10.05
2023-01-18T23:19:39.893Z,9.15
2023-01-18T23:22:10.631Z,13.20
2023-01-18T23:24:38.592Z,10.35
2023-01-18T23:27:07.572Z,11.30
2023-01-18T23:29:34.322Z,10.13
2023-01-18T23:32:01.052Z,14.57
2023-01-18T23:34:27.719Z,10.32
2023-01-18T23:36:54.903Z,14.48
2023-01-18T23:39:40.205Z,12.13
2023-01-18T23:42:25.801Z,11.07
2023-01-18T23:45:11.376Z,16.73
2023-01-18T23:47:56.932Z,10.25
2023-01-18T23:50:42.093Z,11.70
2023-01-18T23:53:31.110Z,13.70
2023-01-18T23:55:58.232Z,17.23
2023-01-18T23:58:25.099Z,11.90
